createdAt,value
2023-09-25T00:01:33.640Z,100833.45
2023-09-25T00:04:57.738Z,100824.23
2023-09-25T00:08:19.979Z,100818.31
2023-09-25T00:11:49.327Z,100818.32
2023-09-25T00:15:12.218Z,100823.74
2023-09-25T00:18:41.723Z,100816.42
2023-09-25T00:22:10.842Z,100813.48
2023-09-25T00:25:43.344Z,100805.29
2023-09-25T00:29:12.878Z,100802.67
2023-09-25T00:32:35.917Z,100806.54
2023-09-25T00:36:05.041Z,100805.16
2023-09-25T00:39:34.774Z,100813.21
2023-09-25T00:42:57.944Z,100803.11
2023-09-25T00:46:27.483Z,100803.64
2023-09-25T00:49:56.631Z,100796.33
2023-09-25T00:53:26.849Z,100799.13
2023-09-25T00:56:55.993Z,100787.11
2023-09-25T01:00:26.031Z,100780.13
2023-09-25T01:03:55.629Z,100780.49
2023-09-25T01:07:25.510Z,100783.30
2023-09-25T01:11:10.994Z,100785.23
2023-09-25T01:14:23.016Z,100786.63
2023-09-25T01:17:53.114Z,100787.00
2023-09-25T01:21:22.876Z,100792.77
2023-09-25T01:24:43.327Z,100791.73
2023-09-25T01:28:05.488Z,100786.69
2023-09-25T01:31:34.705Z,100785.98
2023-09-25T01:35:03.712Z,100787.73
2023-09-25T01:38:32.847Z,100782.14
2023-09-25T01:42:02.302Z,100782.85
2023-09-25T01:45:31.916Z,100775.54
2023-09-25T01:49:01.741Z,100767.36
2023-09-25T01:52:31.884Z,100760.75
2023-09-25T01:56:02.038Z,100754.66
2023-09-25T01:59:31.645Z,100747.15
2023-09-25T02:03:00.954Z,100743.86
2023-09-25T02:06:30.697Z,100742.82
2023-09-25T02:09:53.516Z,100740.04
2023-09-25T02:13:22.838Z,100734.64
2023-09-25T02:16:52.235Z,100736.39
2023-09-25T02:20:15.177Z,100739.19
2023-09-25T02:23:37.461Z,100741.11
2023-09-25T02:26:42.504Z,100740.59
2023-09-25T02:30:12.233Z,100739.72
2023-09-25T02:33:32.469Z,100746.34
2023-09-25T02:37:08.432Z,100742.52
2023-09-25T02:40:38.263Z,100752.80
2023-09-25T02:43:47.853Z,100745.30
2023-09-25T02:47:15.965Z,100740.60
2023-09-25T02:50:45.251Z,100731.54
2023-09-25T02:54:15.721Z,100734.15
2023-09-25T02:57:45.024Z,100738.16
2023-09-25T03:01:14.551Z,100735.73
2023-09-25T03:04:44.287Z,100745.31
2023-09-25T03:08:13.747Z,100743.94
2023-09-25T03:11:42.992Z,100744.11
2023-09-25T03:15:12.475Z,100743.59
2023-09-25T03:18:32.730Z,100743.59
2023-09-25T03:21:43.588Z,100749.52
2023-09-25T03:25:13.706Z,100746.73
2023-09-25T03:28:23.300Z,100753.36
2023-09-25T03:31:46.033Z,100750.05
2023-09-25T03:35:15.239Z,100749.54
2023-09-25T03:38:35.650Z,100742.05
2023-09-25T03:42:04.825Z,100747.10
2023-09-25T03:45:35.415Z,100745.71
2023-09-25T03:49:05.119Z,100743.46
2023-09-25T03:52:34.235Z,100746.42
2023-09-25T03:55:50.037Z,100746.42
2023-09-25T03:58:58.820Z,100740.50
2023-09-25T04:02:28.713Z,100741.73
2023-09-25T04:05:49.565Z,100727.45
2023-09-25T04:09:00.784Z,100722.58
2023-09-25T04:12:30.068Z,100718.58
2023-09-25T04:15:59.465Z,100721.20
2023-09-25T04:19:10.994Z,100702.05
2023-09-25T04:22:40.834Z,100687.79
2023-09-25T04:26:02.664Z,100688.48
2023-09-25T04:29:21.857Z,100678.05
2023-09-25T04:32:50.712Z,100679.09
2023-09-25T04:36:19.253Z,100673.87
2023-09-25T04:39:49.124Z,100670.05
2023-09-25T04:43:18.512Z,100675.80
2023-09-25T04:46:23.743Z,100672.30
2023-09-25T04:49:53.124Z,100666.74
2023-09-25T04:53:22.555Z,100664.31
2023-09-25T04:56:51.257Z,100663.09
2023-09-25T05:00:20.628Z,100664.65
2023-09-25T05:03:41.060Z,100662.40
2023-09-25T05:07:10.514Z,100663.27
2023-09-25T05:10:32.871Z,100665.19
2023-09-25T05:14:02.239Z,100669.34
2023-09-25T05:17:31.747Z,100667.59
2023-09-25T05:20:44.472Z,100679.41
2023-09-25T05:24:14.036Z,100672.64
2023-09-25T05:27:42.297Z,100660.45
2023-09-25T05:30:52.319Z,100664.98
2023-09-25T05:34:21.639Z,100666.72
2023-09-25T05:37:51.380Z,100672.98
2023-09-25T05:41:20.174Z,100675.42
2023-09-25T05:44:49.664Z,100667.42
2023-09-25T05:48:19.341Z,100671.77
2023-09-25T05:51:41.793Z,100680.13
2023-09-25T05:55:11.901Z,100685.50
2023-09-25T05:58:42.612Z,100678.03
2023-09-25T06:02:11.937Z,100673.84
2023-09-25T06:05:31.009Z,100678.55
2023-09-25T06:09:00.286Z,100676.79
2023-09-25T06:12:22.437Z,100682.88
2023-09-25T06:15:51.791Z,100696.98
2023-09-25T06:19:21.114Z,100697.85
2023-09-25T06:22:50.608Z,100698.53
2023-09-25T06:26:12.871Z,100693.66
2023-09-25T06:29:33.978Z,100687.23
2023-09-25T06:33:02.770Z,100682.02
2023-09-25T06:36:32.893Z,100674.19
2023-09-25T06:40:02.308Z,100671.05
2023-09-25T06:43:32.221Z,100667.92
2023-09-25T06:46:51.804Z,100664.27
2023-09-25T06:50:21.384Z,100657.49
2023-09-25T06:53:34.314Z,100650.87
2023-09-25T06:57:03.532Z,100649.48
2023-09-25T07:00:46.088Z,100637.49
2023-09-25T07:04:18.665Z,100636.10
2023-09-25T07:07:47.253Z,100636.61
2023-09-25T07:11:16.476Z,100637.66
2023-09-25T07:14:45.584Z,100623.93
2023-09-25T07:18:01.927Z,100627.76
2023-09-25T07:21:37.368Z,100607.94
2023-09-25T07:24:59.917Z,100592.11
2023-09-25T07:28:29.327Z,100598.38
2023-09-25T07:31:55.330Z,100584.98
2023-09-25T07:35:24.617Z,100574.04
2023-09-25T07:38:53.634Z,100556.13
2023-09-25T07:42:23.041Z,100533.52
2023-09-25T07:45:32.536Z,100527.45
2023-09-25T07:48:59.277Z,100521.20
2023-09-25T07:52:28.611Z,100528.48
2023-09-25T07:55:57.765Z,100533.89
2023-09-25T07:59:26.857Z,100545.02
2023-09-25T08:02:56.125Z,100539.08
2023-09-25T08:05:56.416Z,100539.44
2023-09-25T08:09:21.971Z,100542.04
2023-09-25T08:12:42.580Z,100541.19
2023-09-25T08:15:41.980Z,100545.00
2023-09-25T08:19:11.331Z,100556.64
2023-09-25T08:22:39.323Z,100561.69
2023-09-25T08:26:07.801Z,100579.25
2023-09-25T08:29:17.361Z,100590.73
2023-09-25T08:32:45.507Z,100597.52
2023-09-25T08:36:07.884Z,100599.42
2023-09-25T08:39:37.199Z,100607.06
2023-09-25T08:43:18.910Z,100604.63
2023-09-25T08:46:50.052Z,100606.71
2023-09-25T08:50:19.294Z,100609.85
2023-09-25T08:53:38.199Z,100613.15
2023-09-25T08:57:07.410Z,100614.88
2023-09-25T09:00:36.942Z,100625.16
2023-09-25T09:04:06.811Z,100623.59
2023-09-25T09:07:38.963Z,100617.14
2023-09-25T09:11:21.015Z,100611.59
2023-09-25T09:14:30.335Z,100604.27
2023-09-25T09:18:02.269Z,100599.23
2023-09-25T09:21:37.411Z,100592.97
2023-09-25T09:25:08.167Z,100589.34
2023-09-25T09:28:41.681Z,100583.94
2023-09-25T09:31:54.467Z,100571.06
2023-09-25T09:35:17.831Z,100563.23
2023-09-25T09:38:41.833Z,100568.98
2023-09-25T09:42:04.314Z,100566.73
2023-09-25T09:45:33.841Z,100572.29
2023-09-25T09:49:03.018Z,100571.94
2023-09-25T09:52:34.400Z,100566.55
2023-09-25T09:56:04.290Z,100569.85
2023-09-25T09:59:24.099Z,100587.75
2023-09-25T10:02:53.060Z,100599.59
2023-09-25T10:06:28.347Z,100604.28
2023-09-25T10:09:56.408Z,100611.41
2023-09-25T10:13:33.189Z,100607.76
2023-09-25T10:17:02.770Z,100611.23
2023-09-25T10:20:41.114Z,100617.84
2023-09-25T10:23:59.231Z,100616.97
2023-09-25T10:27:08.475Z,100614.89
2023-09-25T10:30:38.201Z,100621.16
2023-09-25T10:34:11.012Z,100621.15
2023-09-25T10:37:40.027Z,100612.63
2023-09-25T10:41:09.580Z,100616.81
2023-09-25T10:44:31.581Z,100608.63
2023-09-25T10:47:43.381Z,100604.10
2023-09-25T10:50:58.443Z,100596.98
2023-09-25T10:54:28.035Z,100592.46
2023-09-25T10:57:57.016Z,100589.84
2023-09-25T11:01:19.878Z,100588.63
2023-09-25T11:04:52.078Z,100582.36
2023-09-25T11:08:21.073Z,100579.41
2023-09-25T11:11:50.587Z,100577.49
2023-09-25T11:15:20.371Z,100571.23
2023-09-25T11:18:50.369Z,100567.05
2023-09-25T11:22:19.738Z,100563.92
2023-09-25T11:29:18.981Z,100560.44
2023-09-25T11:32:48.909Z,100557.66
2023-09-25T11:36:18.350Z,100563.05
2023-09-25T11:39:42.438Z,100567.23
2023-09-25T11:43:04.721Z,100574.90
2023-09-25T11:46:33.818Z,100587.25
2023-09-25T11:49:42.490Z,100586.89
2023-09-25T11:53:11.586Z,100594.38
2023-09-25T11:56:23.721Z,100600.30
2023-09-25T11:59:52.968Z,100596.99
2023-09-25T12:03:22.261Z,100596.47
2023-09-25T12:11:03.136Z,100584.46
2023-09-25T12:14:15.825Z,100575.42
2023-09-25T12:17:05.463Z,100571.95
2023-09-25T12:20:33.519Z,100577.67
2023-09-25T12:24:02.668Z,100580.98
2023-09-25T12:27:25.190Z,100581.34
2023-09-25T12:30:54.599Z,100579.77
2023-09-25T12:34:24.037Z,100600.98
2023-09-25T12:37:39.703Z,100597.52
2023-09-25T12:40:58.442Z,100591.94
2023-09-25T12:44:32.847Z,100583.75
2023-09-25T12:48:02.372Z,100579.77
2023-09-25T12:51:31.724Z,100566.02
2023-09-25T12:55:02.030Z,100546.36
2023-09-25T12:58:31.256Z,100538.52
2023-09-25T13:02:01.044Z,100539.40
2023-09-25T13:05:20.466Z,100535.73
2023-09-25T13:08:39.119Z,100534.86
2023-09-25T13:12:08.368Z,100526.50
2023-09-25T13:15:37.481Z,100525.29
2023-09-25T13:19:07.136Z,100526.34
2023-09-25T13:22:38.034Z,100519.71
2023-09-25T13:26:07.985Z,100525.45
2023-09-25T13:29:37.919Z,100519.36
2023-09-25T13:33:07.622Z,100524.58
2023-09-25T13:36:36.994Z,100518.99
2023-09-25T13:40:07.246Z,100517.08
2023-09-25T13:43:37.417Z,100512.73
2023-09-25T13:47:05.537Z,100512.89
2023-09-25T13:50:19.218Z,100501.05
2023-09-25T13:53:48.504Z,100506.27
2023-09-25T13:57:12.301Z,100502.96
2023-09-25T14:00:43.067Z,100496.17
2023-09-25T14:04:12.736Z,100482.05
2023-09-25T14:07:35.259Z,100481.36
2023-09-25T14:11:03.632Z,100484.65
2023-09-25T14:14:33.038Z,100472.46
2023-09-25T14:18:02.373Z,100462.54
2023-09-25T14:21:24.408Z,100454.20
2023-09-25T14:24:53.781Z,100449.33
2023-09-25T14:28:23.104Z,100456.98
2023-09-25T14:31:45.725Z,100452.98
2023-09-25T14:35:14.797Z,100453.52
2023-09-25T14:38:44.304Z,100452.30
2023-09-25T14:42:03.117Z,100438.04
2023-09-25T14:45:32.662Z,100431.23
2023-09-25T14:48:54.840Z,100438.02
2023-09-25T14:52:24.152Z,100445.49
2023-09-25T14:55:53.621Z,100446.90
2023-09-25T14:59:25.654Z,100455.77
2023-09-25T15:02:55.467Z,100455.25
2023-09-25T15:06:24.432Z,100447.94
2023-09-25T15:09:54.108Z,100450.22
2023-09-25T15:13:23.577Z,100455.09
2023-09-25T15:16:42.986Z,100464.33
2023-09-25T15:20:12.467Z,100473.88
2023-09-25T15:23:27.098Z,100477.18
2023-09-25T15:26:32.019Z,100475.26
2023-09-25T15:30:01.285Z,100476.47
2023-09-25T15:33:29.303Z,100467.23
2023-09-25T15:36:58.458Z,100469.52
2023-09-25T15:40:27.554Z,100463.41
2023-09-25T15:43:57.076Z,100462.18
2023-09-25T15:47:26.345Z,100463.58
2023-09-25T15:50:55.902Z,100462.69
2023-09-25T15:54:18.326Z,100471.39
2023-09-25T15:57:47.744Z,100469.81
2023-09-25T16:01:17.243Z,100465.98
2023-09-25T16:04:47.014Z,100479.89
2023-09-25T16:08:16.306Z,100483.71
2023-09-25T16:11:45.212Z,100488.93
2023-09-25T16:15:07.627Z,100491.88
2023-09-25T16:18:27.307Z,100496.92
2023-09-25T16:21:56.816Z,100489.93
2023-09-25T16:25:26.205Z,100493.40
2023-09-25T16:28:40.323Z,100490.61
2023-09-25T16:32:09.583Z,100485.20
2023-09-25T16:35:38.853Z,100483.09
2023-09-25T16:38:54.793Z,100483.09
2023-09-25T16:42:24.065Z,100486.92
2023-09-25T16:45:54.129Z,100487.61
2023-09-25T16:49:16.294Z,100479.41
2023-09-25T16:52:45.391Z,100479.23
2023-09-25T16:56:15.730Z,100482.86
2023-09-25T16:59:44.528Z,100482.69
2023-09-25T17:03:14.077Z,100487.21
2023-09-25T17:06:34.138Z,100486.67
2023-09-25T17:09:51.110Z,100484.02
2023-09-25T17:13:19.881Z,100490.98
2023-09-25T17:16:49.573Z,100496.52
2023-09-25T17:20:01.656Z,100493.22
2023-09-25T17:23:29.585Z,100497.21
2023-09-25T17:26:52.977Z,100492.83
2023-09-25T17:30:13.954Z,100484.62
2023-09-25T17:33:36.397Z,100492.45
2023-09-25T17:36:52.081Z,100486.51
2023-09-25T17:40:20.234Z,100483.20
2023-09-25T17:43:49.867Z,100473.41
2023-09-25T17:47:19.256Z,100475.66
2023-09-25T17:50:48.456Z,100490.11
2023-09-25T17:54:18.346Z,100482.78
2023-09-25T17:57:47.840Z,100482.05
2023-09-25T18:01:17.150Z,100482.56
2023-09-25T18:04:46.589Z,100478.19
2023-09-25T18:08:16.103Z,100483.23
2023-09-25T18:11:45.480Z,100491.27
2023-09-25T18:15:14.943Z,100491.75
2023-09-25T18:18:43.982Z,100494.71
2023-09-25T18:22:13.138Z,100498.19
2023-09-25T18:25:43.532Z,100506.05
2023-09-25T18:29:12.808Z,100509.38
2023-09-25T18:32:32.261Z,100517.73
2023-09-25T18:36:01.508Z,100526.11
2023-09-25T18:39:13.717Z,100526.31
2023-09-25T18:42:43.310Z,100522.50
2023-09-25T18:46:12.958Z,100511.52
2023-09-25T18:49:42.416Z,100513.62
2023-09-25T18:52:56.862Z,100515.39
2023-09-25T18:56:16.939Z,100515.21
2023-09-25T18:59:37.794Z,100530.38
2023-09-25T19:03:07.065Z,100530.73
2023-09-25T19:06:36.638Z,100532.66
2023-09-25T19:10:06.142Z,100529.52
2023-09-25T19:16:53.016Z,100532.67
2023-09-25T19:20:15.568Z,100532.68
2023-09-25T19:23:44.716Z,100542.80
2023-09-25T19:26:59.696Z,100548.90
2023-09-25T19:30:28.818Z,100539.49
2023-09-25T19:34:02.324Z,100544.23
2023-09-25T19:37:32.637Z,100553.64
2023-09-25T19:41:01.985Z,100554.52
2023-09-25T19:44:20.607Z,100570.36
2023-09-25T19:47:30.338Z,100580.14
2023-09-25T19:51:00.857Z,100572.30
2023-09-25T19:54:29.939Z,100560.11
2023-09-25T19:58:00.920Z,100540.60
2023-09-25T20:01:31.877Z,100534.69
2023-09-25T20:05:00.188Z,100527.18
2023-09-25T20:08:29.581Z,100532.95
2023-09-25T20:11:58.863Z,100533.12
2023-09-25T20:15:19.256Z,100541.30
2023-09-25T20:18:47.985Z,100544.07
2023-09-25T20:22:17.202Z,100547.55
2023-09-25T20:25:45.560Z,100552.25
2023-09-25T20:29:14.889Z,100560.77
2023-09-25T20:32:34.452Z,100556.39
2023-09-25T20:36:03.612Z,100560.73
2023-09-25T20:39:32.775Z,100563.86
2023-09-25T20:43:02.157Z,100562.46
2023-09-25T20:46:21.658Z,100560.52
2023-09-25T20:49:50.877Z,100557.72
2023-09-25T20:53:21.358Z,100555.83
2023-09-25T20:56:34.338Z,100562.81
2023-09-25T20:59:56.406Z,100560.02
2023-09-25T21:03:04.066Z,100561.73
2023-09-25T21:06:32.259Z,100561.03
2023-09-25T21:10:01.631Z,100551.27
2023-09-25T21:13:23.740Z,100544.48
2023-09-25T21:16:53.269Z,100537.86
2023-09-25T21:20:27.979Z,100544.14
2023-09-25T21:23:37.759Z,100547.61
2023-09-25T21:26:59.596Z,100551.27
2023-09-25T21:30:28.458Z,100552.52
2023-09-25T21:33:38.218Z,100546.42
2023-09-25T21:37:00.423Z,100541.16
2023-09-25T21:40:19.944Z,100541.17
2023-09-25T21:43:49.566Z,100533.83
2023-09-25T21:47:19.202Z,100535.20
2023-09-25T21:50:49.010Z,100537.79
2023-09-25T21:54:08.548Z,100548.42
2023-09-25T21:57:38.144Z,100560.05
2023-09-25T22:00:25.425Z,100557.77
2023-09-25T22:03:00.501Z,100557.05
2023-09-25T22:06:12.849Z,100551.79
2023-09-25T22:09:42.818Z,100553.52
2023-09-25T22:13:12.512Z,100545.31
2023-09-25T22:16:32.307Z,100549.67
2023-09-25T22:19:33.063Z,100541.27
2023-09-25T22:22:55.285Z,100536.04
2023-09-25T22:26:24.716Z,100529.73
2023-09-25T22:29:54.039Z,100530.21
2023-09-25T22:33:23.586Z,100531.39
2023-09-25T22:36:52.819Z,100540.25
2023-09-25T22:40:27.177Z,100545.48
2023-09-25T22:43:58.241Z,100558.89
2023-09-25T22:47:17.725Z,100561.85
2023-09-25T22:50:46.972Z,100559.75
2023-09-25T22:54:17.335Z,100557.13
2023-09-25T22:57:46.447Z,100554.32
2023-09-25T23:01:05.559Z,100543.14
2023-09-25T23:04:11.231Z,100535.44
2023-09-25T23:07:12.805Z,100531.94
2023-09-25T23:10:35.314Z,100538.90
2023-09-25T23:14:04.472Z,100547.42
2023-09-25T23:17:32.861Z,100557.35
2023-09-25T23:21:01.137Z,100558.42
2023-09-25T23:24:29.493Z,100559.66
2023-09-25T23:27:41.949Z,100570.31
2023-09-25T23:31:11.157Z,100566.66
2023-09-25T23:34:41.000Z,100567.37
2023-09-25T23:38:11.147Z,100562.14
2023-09-25T23:41:40.553Z,100558.50
2023-09-25T23:45:03.017Z,100556.60
2023-09-25T23:48:32.192Z,100561.30
2023-09-25T23:52:01.703Z,100556.27
2023-09-25T23:55:31.373Z,100567.62
2023-09-25T23:58:50.682Z,100566.58
